Roland, Iowa
Current Conditions -  °F | °C
As of 6:53 PM on Friday 24 Oct 2014 (Local Time) from KAMW Reporting Station
Haze Haze  
Wind Chill: 59°   Ceiling: Unl
Heat Index: 59°   Visibility: 6mi
Dew Point: 56°   Wind: 5mph
Humidity: 90%   Direction: 180°S
Pressure: 29.91"   Gusts: NA
Location:  42.17°N, 93.5°W
Report Text: KAMW 242353Z AUTO 18004KT 6SM BR CLR 15/13 A2991 RMK AO2 SLP127 T01500133 10217 20150 53012
Loading
Personal Weather Stations






























Interactive Weather Map
Tropical Storm Tracking
New forecast layout! Learn more

10-Day Weather Forecast

Advertisements
Track Severe Weather on mobile